createdAt,value
2023-04-28T00:03:54.995Z,988.2
2023-04-28T00:14:32.124Z,988
2023-04-28T00:19:51.249Z,987.9
2023-04-28T00:30:29.769Z,987.8
2023-04-28T00:41:09.044Z,987.7
2023-04-28T00:51:46.236Z,987.6
2023-04-28T00:57:05.293Z,987.6
2023-04-28T01:07:43.802Z,987.5
2023-04-28T01:13:03.278Z,987.4
2023-04-28T01:23:41.940Z,987.4
2023-04-28T01:29:00.159Z,987.4
2023-04-28T01:39:38.927Z,987.3
2023-04-28T01:50:17.386Z,987.1
2023-04-28T01:55:36.838Z,987.1
2023-04-28T02:06:14.864Z,987
2023-04-28T02:11:34.415Z,986.9
2023-04-28T02:16:54.095Z,986.9
2023-04-28T02:22:13.786Z,986.9
2023-04-28T02:32:53.032Z,986.7
2023-04-28T02:38:12.552Z,986.8
2023-04-28T02:48:50.410Z,986.6
2023-04-28T02:54:09.426Z,986.6
2023-04-28T03:04:47.223Z,986.6
2023-04-28T03:15:24.777Z,986.6
2023-04-28T03:20:43.568Z,986.6
2023-04-28T03:31:22.817Z,986.3
2023-04-28T03:36:42.394Z,986.3
2023-04-28T03:42:02.115Z,986.3
2023-04-28T03:47:21.206Z,986.2
2023-04-28T03:57:59.289Z,986.3
2023-04-28T04:03:19.047Z,986.4
2023-04-28T04:13:57.201Z,986.3
2023-04-28T04:19:15.842Z,986.2
2023-04-28T04:29:53.385Z,986.2
2023-04-28T04:40:32.063Z,986.2
2023-04-28T04:45:51.532Z,986.2
2023-04-28T04:56:30.598Z,986.2
2023-04-28T05:01:49.808Z,986.2
2023-04-28T05:12:28.335Z,986
2023-04-28T05:23:07.266Z,985.8
2023-04-28T05:28:26.701Z,985.8
2023-04-28T05:39:04.731Z,985.5
2023-04-28T05:44:24.104Z,985.6
2023-04-28T06:00:21.852Z,985.6
2023-04-28T06:10:59.129Z,985.7
2023-04-28T06:21:38.017Z,985.5
2023-04-28T06:26:57.355Z,985.5
2023-04-28T06:37:35.732Z,985.5
2023-04-28T06:42:55.350Z,985.5
2023-04-28T06:53:33.366Z,985.6
2023-04-28T07:04:11.713Z,985.6
2023-04-28T07:09:31.511Z,985.7
2023-04-28T07:09:56.008Z,985.6
2023-04-28T07:15:15.195Z,985.7
2023-04-28T07:31:12.297Z,985.8
2023-04-28T07:36:32.003Z,985.8
2023-04-28T07:47:10.874Z,985.7
2023-04-28T07:52:30.377Z,985.7
2023-04-28T08:03:09.203Z,985.7
2023-04-28T08:19:06.770Z,985.6
2023-04-28T08:29:45.475Z,985.8
2023-04-28T08:35:05.056Z,985.8
2023-04-28T08:45:43.331Z,985.8
2023-04-28T09:01:41.770Z,985.8
2023-04-28T09:12:19.674Z,985.7
2023-04-28T09:17:39.161Z,985.6
2023-04-28T09:28:17.526Z,985.5
2023-04-28T09:33:37.221Z,985.5
2023-04-28T09:38:57.049Z,985.5
2023-04-28T09:44:16.649Z,985.4
2023-04-28T09:54:55.374Z,985.4
2023-04-28T10:00:14.162Z,985.4
2023-04-28T10:10:52.003Z,985.4
2023-04-28T10:16:10.915Z,985.4
2023-04-28T10:26:49.629Z,985.4
2023-04-28T10:37:27.668Z,985.3
2023-04-28T10:42:47.178Z,985.2
2023-04-28T10:53:26.124Z,985.4
2023-04-28T10:58:44.645Z,985.4
2023-04-28T11:09:23.113Z,985.4
2023-04-28T11:14:43.217Z,985.4
2023-04-28T11:20:01.978Z,985.4
2023-04-28T11:25:20.922Z,985.3
2023-04-28T11:35:59.925Z,985.3
2023-04-28T11:41:18.977Z,985.2
2023-04-28T11:51:56.705Z,985.3
2023-04-28T11:57:16.211Z,985.2
2023-04-28T12:02:35.677Z,985.3
2023-04-28T12:07:55.058Z,985.3
2023-04-28T12:18:34.467Z,985.4
2023-04-28T12:23:53.480Z,985.4
2023-04-28T12:34:31.396Z,985.4
2023-04-28T12:39:50.572Z,985.4
2023-04-28T12:50:29.404Z,985.5
2023-04-28T13:01:07.914Z,985.6
2023-04-28T13:06:26.784Z,985.6
2023-04-28T13:17:05.342Z,985.5
2023-04-28T13:22:24.232Z,985.3
2023-04-28T13:33:02.916Z,985.1
2023-04-28T13:38:22.182Z,985.1
2023-04-28T13:49:00.750Z,985.2
2023-04-28T13:59:39.322Z,985.2
2023-04-28T14:04:59.088Z,985.1
2023-04-28T14:10:18.304Z,985
2023-04-28T14:20:55.880Z,985
2023-04-28T14:26:15.618Z,984.6
2023-04-28T14:36:54.182Z,984.6
2023-04-28T14:42:13.850Z,984.5
2023-04-28T14:52:52.706Z,984.3
2023-04-28T14:58:12.199Z,984.5
2023-04-28T15:08:50.433Z,984.8
2023-04-28T15:24:47.707Z,984.8
2023-04-28T15:35:26.006Z,984.8
2023-04-28T15:40:45.317Z,984.8
2023-04-28T15:46:03.948Z,984.6
2023-04-28T15:51:22.738Z,984.4
2023-04-28T15:56:41.583Z,984.7
2023-04-28T16:07:20.054Z,984.8
2023-04-28T16:17:59.045Z,984.6
2023-04-28T16:23:18.652Z,984.5
2023-04-28T16:33:56.788Z,984.4
2023-04-28T16:39:16.407Z,984.4
2023-04-28T16:44:35.861Z,984.2
2023-04-28T16:49:55.044Z,984.3
2023-04-28T17:00:33.444Z,984.4
2023-04-28T17:05:52.555Z,984.4
2023-04-28T17:16:31.376Z,984.3
2023-04-28T17:21:51.009Z,984.4
2023-04-28T17:32:29.623Z,984.3
2023-04-28T17:37:48.854Z,984.2
2023-04-28T17:43:07.830Z,984.2
2023-04-28T17:48:26.901Z,984.4
2023-04-28T17:59:05.223Z,984.4
2023-04-28T18:04:24.332Z,984.6
2023-04-28T18:15:01.824Z,984.6
2023-04-28T18:20:21.175Z,984.7
2023-04-28T18:25:40.603Z,984.7
2023-04-28T18:30:59.709Z,984.5
2023-04-28T18:41:38.025Z,984.5
2023-04-28T18:46:57.528Z,984.5
2023-04-28T18:57:35.850Z,984.7
2023-04-28T19:02:55.197Z,984.6
2023-04-28T19:13:33.649Z,984.6
2023-04-28T19:24:12.684Z,984.8
2023-04-28T19:29:31.583Z,984.8
2023-04-28T19:40:10.245Z,985
2023-04-28T19:45:29.194Z,985
2023-04-28T19:56:08.076Z,985.1
2023-04-28T20:12:05.659Z,985.1
2023-04-28T20:22:43.923Z,985.2
2023-04-28T20:28:02.678Z,985.2
2023-04-28T20:38:41.164Z,985.2
2023-04-28T20:44:00.641Z,985.2
2023-04-28T20:59:59.359Z,985.2
2023-04-28T21:05:18.677Z,985.2
2023-04-28T21:15:57.054Z,985.1
2023-04-28T21:21:15.985Z,985.2
2023-04-28T21:31:53.923Z,985.1
2023-04-28T21:42:32.191Z,985.2
2023-04-28T21:47:50.924Z,985.2
2023-04-28T21:58:29.965Z,985.2
2023-04-28T22:03:49.286Z,985.3
2023-04-28T22:14:40.143Z,985.3
2023-04-28T22:30:26.491Z,985.2
2023-04-28T22:41:05.603Z,985.4
2023-04-28T22:46:25.167Z,985.4
2023-04-28T22:57:04.175Z,985.4
2023-04-28T23:02:24.047Z,985.4
2023-04-28T23:07:42.680Z,985.4
2023-04-28T23:13:01.568Z,985.5
2023-04-28T23:23:39.979Z,985.4
2023-04-28T23:28:59.538Z,985.4
2023-04-28T23:39:38.256Z,985.4
2023-04-28T23:44:57.442Z,985.2
2023-04-28T23:55:35.874Z,985.4
